Time;durP1;ratioP1;P1;durP2;ratioP2;P2;SDS_P1;SDS_P2;PMS_P1;PMS_P2;Temp;Humidity;BMP_temperature;BMP_pressure;BME280_temperature;BME280_humidity;BME280_pressure;Samples;Min_cycle;Max_cycle;Signal;HPM_P1;HPM_P2
2021/12/22 00:01:11;;;;;;;196.27;121.65;;;8.80;95.70;;;;;;5053868;28;20039;-73
2021/12/22 00:04:15;;;;;;;198.88;128.10;;;8.70;95.70;;;;;;5053995;28;20059;-73
2021/12/22 00:07:18;;;;;;;207.80;130.77;;;8.80;95.80;;;;;;5054315;28;20060;-73
2021/12/22 00:10:23;;;;;;;206.27;128.55;;;8.70;95.50;;;;;;5053973;28;20048;-72
2021/12/22 00:13:28;;;;;;;213.27;134.07;;;8.70;95.60;;;;;;5054085;28;20392;-72
2021/12/22 00:16:33;;;;;;;213.40;131.25;;;8.70;95.50;;;;;;5053293;28;20071;-72
2021/12/22 00:19:37;;;;;;;210.82;131.40;;;8.60;95.50;;;;;;5053799;28;20052;-72
2021/12/22 00:22:42;;;;;;;210.52;132.82;;;8.50;95.30;;;;;;5053650;28;20052;-72
2021/12/22 00:25:46;;;;;;;201.50;129.45;;;8.40;95.60;;;;;;5053332;28;20056;-72
2021/12/22 00:28:50;;;;;;;201.93;131.57;;;8.40;95.70;;;;;;5053116;28;20512;-73
2021/12/22 00:32:15;;;;;;;207.77;130.57;;;8.30;95.60;;;;;;5053817;28;20059;-73
2021/12/22 00:35:21;;;;;;;198.98;125.47;;;8.30;95.70;;;;;;5053340;28;20071;-73
2021/12/22 00:38:24;;;;;;;206.60;131.02;;;8.30;96.00;;;;;;5052459;28;20048;-73
2021/12/22 00:41:28;;;;;;;196.00;127.43;;;8.20;95.80;;;;;;5053359;28;20399;-72
2021/12/22 00:44:32;;;;;;;203.10;132.02;;;8.20;95.70;;;;;;5053477;28;20420;-72
2021/12/22 00:47:37;;;;;;;202.02;131.55;;;8.10;96.00;;;;;;5052721;28;20052;-72
2021/12/22 00:50:41;;;;;;;206.73;132.45;;;8.00;96.40;;;;;;5053533;28;20056;-73
2021/12/22 00:53:45;;;;;;;201.98;132.35;;;8.10;96.40;;;;;;5052507;28;20063;-72
2021/12/22 00:56:49;;;;;;;202.20;128.40;;;8.10;96.50;;;;;;5052973;28;20115;-72
2021/12/22 00:59:53;;;;;;;191.75;126.68;;;8.10;96.40;;;;;;5051674;28;20048;-73
2021/12/22 01:02:57;;;;;;;193.52;126.97;;;8.10;96.20;;;;;;5052360;28;20056;-73
2021/12/22 01:06:03;;;;;;;194.90;127.32;;;8.20;96.20;;;;;;5052473;28;20048;-73
2021/12/22 01:09:08;;;;;;;187.10;128.55;;;8.10;96.00;;;;;;5052561;28;20516;-72
2021/12/22 01:12:12;;;;;;;196.23;131.85;;;8.20;95.90;;;;;;5052528;28;20036;-72
2021/12/22 01:15:16;;;;;;;186.75;127.20;;;8.10;95.70;;;;;;5051690;28;20044;-72
2021/12/22 01:18:29;;;;;;;193.88;128.00;;;8.00;95.70;;;;;;5052417;28;20555;-72
2021/12/22 01:22:03;;;;;;;207.13;130.45;;;8.00;95.70;;;;;;5052123;28;20039;-72
2021/12/22 01:25:03;;;;;;;209.48;134.13;;;8.10;95.40;;;;;;5051183;28;20067;-72
2021/12/22 01:28:09;;;;;;;209.43;131.77;;;8.10;95.10;;;;;;5051881;28;20216;-72
2021/12/22 01:31:16;;;;;;;194.02;129.85;;;7.90;95.30;;;;;;5051541;28;20047;-73
2021/12/22 01:34:20;;;;;;;205.07;129.68;;;7.80;95.20;;;;;;5050963;28;20056;-72
2021/12/22 01:37:24;;;;;;;198.43;126.40;;;7.80;95.10;;;;;;5051581;28;20135;-72
2021/12/22 01:40:29;;;;;;;192.55;127.57;;;7.70;94.90;;;;;;5051807;28;20047;-73
2021/12/22 01:43:34;;;;;;;196.65;125.57;;;7.60;95.00;;;;;;5039627;28;20063;-72
2021/12/22 01:49:50;;;;;;;192.75;128.18;;;7.50;95.00;;;;;;5050570;28;20052;-72
2021/12/22 01:52:54;;;;;;;199.40;127.10;;;7.50;95.00;;;;;;5051081;28;20044;-72
2021/12/22 01:56:21;;;;;;;206.75;132.27;;;7.50;94.60;;;;;;5051588;28;20078;-72
2021/12/22 01:59:25;;;;;;;201.30;129.93;;;7.40;94.70;;;;;;5051652;28;20116;-72
2021/12/22 02:02:34;;;;;;;196.05;132.07;;;7.40;94.60;;;;;;5050754;28;20206;-72
2021/12/22 02:05:38;;;;;;;206.32;133.45;;;7.30;94.80;;;;;;5051556;28;20400;-72
2021/12/22 02:08:45;;;;;;;194.13;127.95;;;7.30;94.80;;;;;;5051440;28;20047;-72
2021/12/22 02:11:49;;;;;;;201.27;128.93;;;7.10;95.10;;;;;;5051259;28;20440;-72
2021/12/22 02:14:53;;;;;;;196.20;128.15;;;7.00;95.20;;;;;;5051834;28;20056;-73
2021/12/22 02:17:59;;;;;;;196.90;124.05;;;7.00;95.60;;;;;;5050428;28;20519;-73
2021/12/22 02:21:03;;;;;;;182.50;123.47;;;7.00;95.60;;;;;;5051347;28;20423;-73
2021/12/22 02:24:08;;;;;;;180.95;113.65;;;7.00;95.70;;;;;;5050631;28;20500;-72
2021/12/22 02:27:21;;;;;;;186.60;115.72;;;7.10;96.00;;;;;;5051479;28;20060;-73
2021/12/22 02:30:27;;;;;;;176.30;116.13;;;7.20;96.40;;;;;;5050897;28;20040;-73
2021/12/22 02:33:36;;;;;;;197.38;124.22;;;7.30;96.40;;;;;;5050346;28;20060;-72
2021/12/22 02:36:42;;;;;;;194.85;126.13;;;7.50;96.60;;;;;;5051274;28;20060;-73
2021/12/22 02:39:57;;;;;;;194.02;122.60;;;7.60;96.60;;;;;;5051067;28;20048;-73
2021/12/22 02:43:05;;;;;;;184.63;120.82;;;7.60;96.50;;;;;;5051369;28;20040;-72
2021/12/22 02:46:09;;;;;;;188.52;120.15;;;7.60;96.30;;;;;;5050910;28;20052;-72
2021/12/22 02:49:13;;;;;;;183.75;119.10;;;7.60;96.20;;;;;;5050644;28;20044;-72
2021/12/22 02:52:19;;;;;;;171.68;113.13;;;7.60;96.20;;;;;;5050573;28;20518;-72
2021/12/22 02:55:29;;;;;;;174.63;112.18;;;7.50;96.50;;;;;;5050833;28;20505;-72
2021/12/22 02:58:42;;;;;;;159.60;106.88;;;7.50;96.50;;;;;;5050576;28;20048;-72
2021/12/22 03:04:56;;;;;;;169.25;109.72;;;7.50;96.50;;;;;;5054271;28;20052;-72
2021/12/22 03:08:00;;;;;;;155.43;98.78;;;7.40;96.40;;;;;;5054454;28;20384;-71
2021/12/22 03:11:04;;;;;;;135.65;91.70;;;7.30;96.00;;;;;;5054397;28;20051;-72
2021/12/22 03:14:09;;;;;;;136.45;89.13;;;7.10;95.90;;;;;;5054300;28;20036;-72
2021/12/22 03:17:13;;;;;;;141.45;89.43;;;7.10;95.70;;;;;;5054004;28;20336;-72
2021/12/22 03:20:17;;;;;;;133.43;86.10;;;7.00;95.80;;;;;;5054486;28;20488;-72
2021/12/22 03:23:21;;;;;;;125.97;81.38;;;6.90;95.50;;;;;;5054086;28;20060;-72
2021/12/22 03:26:26;;;;;;;137.90;86.75;;;6.80;95.70;;;;;;5053289;28;20504;-72
2021/12/22 03:29:32;;;;;;;130.48;82.28;;;6.80;95.90;;;;;;5054228;28;20460;-72
2021/12/22 03:32:36;;;;;;;140.25;86.72;;;6.80;95.50;;;;;;5054336;28;20060;-72
2021/12/22 03:35:40;;;;;;;130.02;86.50;;;6.80;95.30;;;;;;5053520;28;20055;-72
2021/12/22 03:38:44;;;;;;;131.82;84.60;;;6.60;95.20;;;;;;5052547;28;20089;-72
2021/12/22 03:41:48;;;;;;;132.40;88.00;;;6.50;95.60;;;;;;5053929;28;20040;-72
2021/12/22 03:44:53;;;;;;;127.35;82.65;;;6.60;95.20;;;;;;5053791;28;20508;-73
2021/12/22 03:47:57;;;;;;;118.55;75.80;;;6.50;94.90;;;;;;5053833;28;20389;-72
2021/12/22 03:51:00;;;;;;;109.07;70.85;;;6.40;95.40;;;;;;5053695;28;20043;-72
2021/12/22 03:54:06;;;;;;;117.43;71.25;;;6.40;95.60;;;;;;5053845;28;20052;-72
2021/12/22 03:57:10;;;;;;;116.32;72.85;;;6.40;95.80;;;;;;5053497;28;20384;-72
2021/12/22 04:00:15;;;;;;;124.57;78.57;;;6.40;95.80;;;;;;5052736;28;20044;-72
2021/12/22 04:03:22;;;;;;;119.97;73.85;;;6.30;95.80;;;;;;5053410;28;20056;-72
2021/12/22 04:06:26;;;;;;;122.13;74.10;;;6.20;96.00;;;;;;5053430;28;20424;-72
2021/12/22 04:09:30;;;;;;;124.38;74.05;;;6.20;96.30;;;;;;5053122;28;20040;-72
2021/12/22 04:12:34;;;;;;;113.80;74.65;;;6.20;96.40;;;;;;5053103;28;20052;-72
2021/12/22 04:15:39;;;;;;;122.47;71.97;;;6.20;96.40;;;;;;5053383;28;20060;-72
2021/12/22 04:18:43;;;;;;;116.45;73.53;;;6.30;96.30;;;;;;5053232;28;20052;-72
2021/12/22 04:21:49;;;;;;;115.53;72.13;;;6.30;95.80;;;;;;5053254;28;20048;-72
2021/12/22 04:24:53;;;;;;;114.07;72.53;;;6.30;95.60;;;;;;5052231;28;20048;-72
2021/12/22 04:28:05;;;;;;;110.35;73.40;;;6.40;95.70;;;;;;5053086;28;20524;-72
2021/12/22 04:31:09;;;;;;;118.55;73.90;;;6.40;95.50;;;;;;5052835;28;20048;-72
2021/12/22 04:34:13;;;;;;;107.38;69.93;;;6.40;95.10;;;;;;5061967;28;20056;-72
2021/12/22 04:37:17;;;;;;;110.68;69.38;;;6.30;94.80;;;;;;5061055;28;20072;-73
2021/12/22 04:40:22;;;;;;;121.75;74.05;;;6.20;95.40;;;;;;5061924;28;20048;-73
2021/12/22 04:43:26;;;;;;;108.95;72.15;;;6.20;95.90;;;;;;5059609;28;20052;-72
2021/12/22 04:46:30;;;;;;;119.55;73.38;;;6.10;95.80;;;;;;5052913;28;20052;-72
2021/12/22 04:49:34;;;;;;;114.85;69.38;;;6.10;95.50;;;;;;5051669;28;20039;-72
2021/12/22 04:52:45;;;;;;;113.68;70.07;;;6.10;95.60;;;;;;5052483;28;20040;-72
2021/12/22 04:55:49;;;;;;;109.32;69.97;;;6.10;96.00;;;;;;5052405;28;20052;-72
2021/12/22 04:58:53;;;;;;;121.65;72.03;;;6.20;96.40;;;;;;5052361;28;20056;-72
2021/12/22 05:01:57;;;;;;;106.28;69.45;;;6.20;96.40;;;;;;5052439;28;20048;-73
2021/12/22 05:05:01;;;;;;;109.65;67.28;;;6.30;96.40;;;;;;5051228;28;20405;-72
2021/12/22 05:08:05;;;;;;;108.88;65.82;;;6.40;96.70;;;;;;5052148;28;20408;-72
2021/12/22 05:11:09;;;;;;;101.68;62.75;;;6.40;96.60;;;;;;5052300;28;20112;-72
2021/12/22 05:14:12;;;;;;;103.93;62.85;;;6.50;96.30;;;;;;5052197;28;20488;-72
2021/12/22 05:17:21;;;;;;;97.43;62.25;;;6.50;96.20;;;;;;5051827;28;20056;-72
2021/12/22 05:20:26;;;;;;;97.25;62.47;;;6.50;96.20;;;;;;5051844;28;20047;-72
2021/12/22 05:23:30;;;;;;;97.93;63.70;;;6.50;96.20;;;;;;5051358;28;20060;-72
2021/12/22 05:26:34;;;;;;;102.57;58.10;;;6.60;96.40;;;;;;5051764;28;20408;-72
2021/12/22 05:29:38;;;;;;;85.00;53.58;;;6.60;96.30;;;;;;5051817;28;20047;-72
2021/12/22 05:32:43;;;;;;;92.53;54.65;;;6.70;96.30;;;;;;5051673;28;20055;-72
2021/12/22 05:35:47;;;;;;;88.57;52.28;;;6.60;96.20;;;;;;5051641;28;20048;-72
2021/12/22 05:38:51;;;;;;;91.38;53.25;;;6.60;96.40;;;;;;5051219;28;20056;-72
2021/12/22 05:41:55;;;;;;;79.25;48.83;;;6.60;96.40;;;;;;5051684;28;20044;-72
2021/12/22 05:44:59;;;;;;;77.45;49.42;;;6.60;96.70;;;;;;5051683;28;20068;-72
2021/12/22 05:48:04;;;;;;;78.72;47.28;;;6.70;96.40;;;;;;5051508;28;20052;-72
2021/12/22 05:51:08;;;;;;;72.28;46.85;;;6.80;96.20;;;;;;5051488;28;20048;-72
2021/12/22 05:54:12;;;;;;;77.65;47.00;;;6.70;95.90;;;;;;5051247;28;20048;-72
2021/12/22 05:57:16;;;;;;;73.30;47.17;;;6.60;96.00;;;;;;5050816;28;20048;-72
2021/12/22 06:00:22;;;;;;;74.05;48.03;;;6.60;96.30;;;;;;5051372;28;20044;-72
2021/12/22 06:03:25;;;;;;;81.55;48.20;;;6.60;96.60;;;;;;5051086;28;20417;-72
2021/12/22 06:06:30;;;;;;;80.50;46.75;;;6.60;96.80;;;;;;5051166;28;20048;-72
2021/12/22 06:09:34;;;;;;;70.60;43.63;;;6.70;97.00;;;;;;5050988;28;20408;-72
2021/12/22 06:12:38;;;;;;;80.20;45.22;;;6.70;96.70;;;;;;5050391;28;20047;-72
2021/12/22 06:15:42;;;;;;;75.25;45.22;;;6.80;96.40;;;;;;5038625;28;20052;-72
2021/12/22 06:18:50;;;;;;;75.53;46.65;;;6.80;96.00;;;;;;5050725;28;20056;-72
2021/12/22 06:21:53;;;;;;;69.65;43.08;;;6.70;96.20;;;;;;5050751;28;20108;-63
2021/12/22 06:24:58;;;;;;;69.72;42.92;;;6.70;96.70;;;;;;5050918;28;20051;-63
2021/12/22 06:28:02;;;;;;;85.40;43.58;;;6.70;96.20;;;;;;5050804;28;20044;-64
2021/12/22 06:31:06;;;;;;;73.78;42.55;;;6.80;96.00;;;;;;5051072;28;20048;-64
2021/12/22 06:34:10;;;;;;;83.00;42.85;;;6.70;95.90;;;;;;5050470;28;20056;-63
2021/12/22 06:37:14;;;;;;;74.70;41.72;;;6.70;95.80;;;;;;5055009;28;20056;-64
2021/12/22 06:40:19;;;;;;;76.38;42.88;;;6.60;95.90;;;;;;5054587;28;20051;-64
2021/12/22 06:43:24;;;;;;;70.32;42.70;;;6.50;96.30;;;;;;5054778;28;20397;-63
2021/12/22 06:46:28;;;;;;;78.25;46.83;;;6.60;96.80;;;;;;5055083;28;20392;-64
2021/12/22 06:49:32;;;;;;;77.47;45.03;;;6.60;96.80;;;;;;5054875;28;20048;-63
2021/12/22 06:52:36;;;;;;;84.35;46.45;;;6.70;96.70;;;;;;5054887;28;20044;-63
2021/12/22 06:55:40;;;;;;;78.50;48.92;;;6.80;96.80;;;;;;5054437;28;20052;-63
2021/12/22 06:58:44;;;;;;;94.38;51.65;;;6.90;96.80;;;;;;5054393;28;20056;-63
2021/12/22 07:01:50;;;;;;;89.20;50.25;;;7.00;96.70;;;;;;5054287;28;20056;-63
2021/12/22 07:04:54;;;;;;;94.78;53.25;;;7.00;96.50;;;;;;5053727;28;20052;-63
2021/12/22 07:07:58;;;;;;;110.68;61.88;;;7.10;96.20;;;;;;5054160;28;20039;-63
2021/12/22 07:11:03;;;;;;;110.00;57.92;;;7.20;96.00;;;;;;5053974;28;20052;-63
2021/12/22 07:14:08;;;;;;;114.68;61.75;;;7.30;95.80;;;;;;5053542;28;20496;-60
2021/12/22 07:17:13;;;;;;;113.63;61.65;;;7.30;95.70;;;;;;5053726;28;20059;-62
2021/12/22 07:20:19;;;;;;;110.03;60.97;;;7.40;95.60;;;;;;5054195;28;20112;-62
2021/12/22 07:23:23;;;;;;;120.03;64.63;;;7.40;95.70;;;;;;5053783;28;20043;-63
2021/12/22 07:26:27;;;;;;;134.75;68.63;;;7.50;95.60;;;;;;5053865;28;20044;-62
2021/12/22 07:29:31;;;;;;;125.55;68.43;;;7.40;95.60;;;;;;5053612;28;20044;-62
2021/12/22 07:32:35;;;;;;;121.90;65.18;;;7.40;95.80;;;;;;5053502;28;20044;-64
2021/12/22 07:35:45;;;;;;;123.07;68.93;;;7.40;95.90;;;;;;5053599;28;20404;-62
2021/12/22 07:38:57;;;;;;;125.22;65.88;;;7.50;96.00;;;;;;5053229;28;20051;-61
2021/12/22 07:42:01;;;;;;;120.80;65.63;;;7.60;96.10;;;;;;5053684;28;20052;-67
2021/12/22 07:45:07;;;;;;;121.35;65.03;;;7.80;95.90;;;;;;5052443;28;20229;-63
2021/12/22 07:48:11;;;;;;;119.25;66.80;;;7.90;95.80;;;;;;5053249;28;20040;-65
2021/12/22 07:51:15;;;;;;;138.93;70.35;;;8.00;95.90;;;;;;5053538;28;20060;-63
2021/12/22 07:54:19;;;;;;;126.28;66.43;;;8.10;95.60;;;;;;5053221;28;20052;-63
2021/12/22 07:57:23;;;;;;;124.43;69.63;;;8.10;95.40;;;;;;5053083;28;20056;-64
2021/12/22 08:00:27;;;;;;;131.93;70.15;;;8.10;95.50;;;;;;5053339;28;20055;-63
2021/12/22 08:03:32;;;;;;;112.18;68.30;;;8.20;95.50;;;;;;5053480;28;20048;-62
2021/12/22 08:06:36;;;;;;;111.63;68.22;;;8.20;95.40;;;;;;5053065;28;20051;-63
2021/12/22 08:09:40;;;;;;;118.13;68.15;;;8.20;95.50;;;;;;5053209;28;20071;-64
2021/12/22 08:12:43;;;;;;;102.60;58.90;;;8.30;95.50;;;;;;5053133;28;20040;-62
2021/12/22 08:15:47;;;;;;;95.68;57.70;;;8.30;95.10;;;;;;5053123;28;20535;-64
2021/12/22 08:18:51;;;;;;;96.88;58.47;;;8.30;94.80;;;;;;5052612;28;20262;-65
2021/12/22 08:21:55;;;;;;;92.90;57.13;;;8.40;94.80;;;;;;5051548;28;20048;-65
2021/12/22 08:24:59;;;;;;;101.78;58.30;;;8.60;94.70;;;;;;5052518;28;20053;-61
2021/12/22 08:28:03;;;;;;;93.43;54.67;;;8.70;94.80;;;;;;5052307;28;20400;-64
2021/12/22 08:31:07;;;;;;;83.28;50.40;;;8.80;94.60;;;;;;5052674;28;20073;-62
2021/12/22 08:34:15;;;;;;;68.00;43.80;;;9.10;94.40;;;;;;5052170;28;20060;-61
2021/12/22 08:40:43;;;;;;;58.03;37.78;;;9.70;93.70;;;;;;5052195;28;20044;-61
2021/12/22 08:43:47;;;;;;;52.03;35.15;;;9.90;93.20;;;;;;5052227;28;20524;-61
2021/12/22 08:46:51;;;;;;;57.35;35.38;;;10.10;92.90;;;;;;5052661;28;20044;-61
2021/12/22 08:49:55;;;;;;;69.28;43.30;;;10.30;92.70;;;;;;5052242;28;20048;-63
2021/12/22 08:52:59;;;;;;;70.35;46.72;;;10.40;92.50;;;;;;5052215;28;20052;-62
2021/12/22 08:56:04;;;;;;;65.18;43.28;;;10.40;92.10;;;;;;5051984;28;20040;-61
2021/12/22 08:59:10;;;;;;;78.88;48.53;;;10.50;92.30;;;;;;5050894;28;20060;-63
2021/12/22 09:02:14;;;;;;;59.50;41.10;;;10.60;91.90;;;;;;5051634;28;20036;-63
2021/12/22 09:05:18;;;;;;;62.30;41.50;;;10.60;91.50;;;;;;5051673;28;20040;-62
2021/12/22 09:08:22;;;;;;;52.58;36.38;;;10.60;91.10;;;;;;5051519;28;20040;-62
2021/12/22 09:11:26;;;;;;;54.03;35.00;;;10.70;91.10;;;;;;5051531;28;20044;-63
2021/12/22 09:14:30;;;;;;;46.20;31.20;;;10.80;91.20;;;;;;5051529;28;20108;-62
2021/12/22 09:17:34;;;;;;;40.83;25.52;;;10.80;90.80;;;;;;5051564;28;20056;-63
2021/12/22 09:20:38;;;;;;;43.42;27.67;;;10.90;90.70;;;;;;5051836;28;20499;-64
2021/12/22 09:23:43;;;;;;;45.45;27.70;;;11.00;90.60;;;;;;5050624;28;20044;-62
2021/12/22 09:26:47;;;;;;;44.92;25.02;;;11.00;89.60;;;;;;5051294;28;20456;-62
2021/12/22 09:29:51;;;;;;;46.83;25.60;;;10.90;89.40;;;;;;5051510;28;20048;-62
2021/12/22 09:32:55;;;;;;;49.00;26.30;;;10.90;89.10;;;;;;5051061;28;20059;-61
2021/12/22 09:36:00;;;;;;;42.65;23.55;;;10.90;89.60;;;;;;5050326;28;20055;-63
2021/12/22 09:39:04;;;;;;;38.75;22.35;;;10.90;89.20;;;;;;5050954;28;20071;-62
2021/12/22 09:42:09;;;;;;;42.75;22.02;;;10.80;88.80;;;;;;5051196;28;20044;-63
2021/12/22 09:45:15;;;;;;;42.70;21.80;;;10.70;89.00;;;;;;5051087;28;20048;-63
2021/12/22 09:55:11;;;;;;;32.05;18.90;;;10.80;89.90;;;;;;5051271;28;20052;-63
2021/12/22 09:58:16;;;;;;;31.50;20.92;;;11.00;89.90;;;;;;5050644;28;20056;-63
2021/12/22 10:01:23;;;;;;;39.88;23.35;;;11.00;89.50;;;;;;5050524;28;20048;-63
2021/12/22 10:04:27;;;;;;;47.78;21.70;;;11.10;89.60;;;;;;5050585;28;20044;-62
2021/12/22 10:07:37;;;;;;;37.75;22.80;;;11.00;88.60;;;;;;5050792;28;20040;-62
2021/12/22 10:11:09;;;;;;;33.35;20.58;;;11.00;89.30;;;;;;5050456;28;20531;-63
2021/12/22 10:14:24;;;;;;;26.63;16.77;;;11.10;89.50;;;;;;5049836;28;20044;-62
2021/12/22 10:17:31;;;;;;;42.58;22.92;;;11.20;89.70;;;;;;5050553;28;20051;-62
2021/12/22 10:20:35;;;;;;;42.20;24.05;;;11.20;90.00;;;;;;5050447;28;20052;-62
2021/12/22 10:23:47;;;;;;;38.00;23.15;;;11.30;90.00;;;;;;5050737;28;20504;-62
2021/12/22 10:27:05;;;;;;;37.33;23.55;;;11.40;89.90;;;;;;5050183;28;20052;-62
2021/12/22 10:30:26;;;;;;;33.35;22.02;;;11.40;89.70;;;;;;5050556;28;20075;-62
2021/12/22 10:33:31;;;;;;;38.35;22.58;;;11.40;89.80;;;;;;5049270;28;20056;-62
2021/12/22 10:36:51;;;;;;;42.10;24.95;;;11.50;89.90;;;;;;5050613;28;20044;-62
2021/12/22 10:39:55;;;;;;;42.03;24.98;;;11.50;89.80;;;;;;5050781;28;20048;-61
2021/12/22 10:43:00;;;;;;;40.05;25.27;;;11.50;89.50;;;;;;5050355;28;20048;-62
2021/12/22 10:46:05;;;;;;;42.42;24.23;;;11.50;89.50;;;;;;5050320;28;20044;-62
2021/12/22 10:49:20;;;;;;;50.00;27.95;;;11.60;89.50;;;;;;5050191;28;20041;-62
2021/12/22 10:52:25;;;;;;;43.92;26.00;;;11.60;89.50;;;;;;5050365;28;20048;-62
2021/12/22 10:55:59;;;;;;;47.28;26.92;;;11.60;89.30;;;;;;5050248;28;20056;-62
2021/12/22 10:59:07;;;;;;;43.60;27.02;;;11.70;89.50;;;;;;5049058;28;20052;-62
2021/12/22 11:02:19;;;;;;;41.53;24.60;;;11.70;89.40;;;;;;5050363;28;20044;-62
2021/12/22 11:05:28;;;;;;;35.75;22.05;;;11.70;88.80;;;;;;5050148;28;20044;-62
2021/12/22 11:08:32;;;;;;;34.70;21.15;;;11.80;88.50;;;;;;5050088;28;20504;-62
2021/12/22 11:11:43;;;;;;;35.40;20.13;;;11.80;88.40;;;;;;5050164;28;20063;-62
2021/12/22 11:14:47;;;;;;;31.65;18.98;;;11.80;88.40;;;;;;5049965;28;20393;-62
2021/12/22 11:17:51;;;;;;;29.45;17.75;;;11.90;88.60;;;;;;5049919;28;20044;-62
2021/12/22 11:21:11;;;;;;;23.10;15.38;;;11.90;88.60;;;;;;5050180;28;20048;-62
2021/12/22 11:24:15;;;;;;;24.42;15.90;;;12.00;88.80;;;;;;5053595;28;20052;-62
2021/12/22 11:27:24;;;;;;;22.88;15.55;;;12.00;88.90;;;;;;5053752;28;20040;-62
2021/12/22 11:30:29;;;;;;;41.72;20.95;;;12.10;89.60;;;;;;5053230;28;20047;-62
2021/12/22 11:33:35;;;;;;;29.58;17.42;;;12.20;89.00;;;;;;5053015;28;20053;-62
2021/12/22 11:36:39;;;;;;;29.40;18.08;;;12.20;88.40;;;;;;5053184;28;20052;-62
2021/12/22 11:39:43;;;;;;;28.60;16.80;;;12.30;88.50;;;;;;5052897;28;20056;-62
2021/12/22 11:42:48;;;;;;;35.97;19.30;;;12.40;88.30;;;;;;5053261;28;20039;-62
2021/12/22 11:45:53;;;;;;;26.35;17.30;;;12.40;87.50;;;;;;5053702;28;20420;-62
2021/12/22 11:48:57;;;;;;;33.47;19.80;;;12.40;86.90;;;;;;5053023;28;20040;-62
2021/12/22 11:52:36;;;;;;;29.85;17.85;;;12.40;85.70;;;;;;5050875;28;20108;-62
2021/12/22 11:55:44;;;;;;;43.65;21.55;;;12.50;86.00;;;;;;5051144;28;20044;-62
2021/12/22 11:58:49;;;;;;;32.67;19.50;;;12.40;85.40;;;;;;5050878;28;20067;-62
2021/12/22 12:02:25;;;;;;;31.40;18.77;;;12.40;85.50;;;;;;5051190;28;20040;-62
2021/12/22 12:05:31;;;;;;;36.38;18.25;;;12.40;85.80;;;;;;5052242;28;20370;-62
2021/12/22 12:08:47;;;;;;;27.38;16.45;;;12.40;85.40;;;;;;5052669;28;20512;-62
2021/12/22 12:11:55;;;;;;;29.73;18.10;;;12.40;85.30;;;;;;5052940;28;20043;-62
2021/12/22 12:15:10;;;;;;;34.65;18.05;;;12.50;84.90;;;;;;5052608;28;20064;-62
2021/12/22 12:21:52;;;;;;;31.00;17.05;;;12.50;84.10;;;;;;5052857;28;20036;-62
2021/12/22 12:25:10;;;;;;;26.90;17.30;;;12.50;84.30;;;;;;5052882;28;20048;-62
2021/12/22 12:28:19;;;;;;;29.65;18.08;;;12.40;84.20;;;;;;5052386;28;20051;-61
2021/12/22 12:31:40;;;;;;;28.15;17.90;;;12.40;84.50;;;;;;5052663;28;20044;-62
2021/12/22 12:34:44;;;;;;;25.75;16.67;;;12.40;84.60;;;;;;5051913;28;20060;-61
2021/12/22 12:38:19;;;;;;;26.23;16.25;;;12.40;84.70;;;;;;5052599;28;20048;-63
2021/12/22 12:41:27;;;;;;;31.67;16.75;;;12.50;84.80;;;;;;5052478;28;20404;-62
2021/12/22 12:44:31;;;;;;;27.17;15.98;;;12.50;85.40;;;;;;5052409;28;20044;-63
2021/12/22 12:47:36;;;;;;;36.00;18.48;;;12.50;85.10;;;;;;5051769;28;20052;-63
2021/12/22 12:50:40;;;;;;;36.17;18.40;;;12.50;85.10;;;;;;5051990;28;20107;-63
2021/12/22 12:53:48;;;;;;;33.05;18.92;;;12.50;84.70;;;;;;5052412;28;20369;-63
2021/12/22 12:56:57;;;;;;;37.17;21.48;;;12.50;84.60;;;;;;5052145;28;20048;-63
2021/12/22 13:00:06;;;;;;;35.50;19.52;;;12.50;84.00;;;;;;5051977;28;20052;-62
2021/12/22 13:03:10;;;;;;;33.13;20.05;;;12.50;84.30;;;;;;5052403;28;20048;-62
2021/12/22 13:06:14;;;;;;;37.17;19.25;;;12.50;84.60;;;;;;5051126;28;20147;-63
2021/12/22 13:09:22;;;;;;;31.02;19.25;;;12.50;84.90;;;;;;5052199;28;20388;-62
2021/12/22 13:12:46;;;;;;;29.45;19.05;;;12.50;84.90;;;;;;5051593;28;20040;-62
2021/12/22 13:15:50;;;;;;;31.52;19.42;;;12.60;85.10;;;;;;5051597;28;20514;-62
2021/12/22 13:18:54;;;;;;;37.75;20.00;;;12.60;85.30;;;;;;5051629;28;20318;-62
2021/12/22 13:22:27;;;;;;;34.67;19.52;;;12.60;84.30;;;;;;5051700;28;20377;-62
2021/12/22 13:25:34;;;;;;;34.60;19.38;;;12.60;84.80;;;;;;5051492;28;20051;-63
2021/12/22 13:28:39;;;;;;;34.97;17.80;;;12.60;84.80;;;;;;5051618;28;20385;-63
2021/12/22 13:31:43;;;;;;;36.22;20.70;;;12.60;84.60;;;;;;5051601;28;20056;-64
2021/12/22 13:34:48;;;;;;;31.45;19.75;;;12.70;84.50;;;;;;5051537;28;20512;-64
2021/12/22 13:37:52;;;;;;;36.40;18.38;;;12.70;83.40;;;;;;5051426;28;20523;-64
2021/12/22 13:41:09;;;;;;;25.15;16.45;;;12.70;83.50;;;;;;5051432;28;20063;-64
2021/12/22 13:44:14;;;;;;;27.75;18.00;;;12.80;83.90;;;;;;5050793;28;20206;-64
2021/12/22 13:47:18;;;;;;;37.65;19.17;;;12.80;84.90;;;;;;5051228;28;20044;-64
2021/12/22 13:50:22;;;;;;;33.42;19.38;;;12.80;84.50;;;;;;5051327;28;20048;-64
2021/12/22 13:53:27;;;;;;;42.30;22.75;;;12.80;84.60;;;;;;5050836;28;20393;-62
2021/12/22 13:56:33;;;;;;;45.00;24.30;;;12.80;84.60;;;;;;5050951;28;20048;-62
2021/12/22 13:59:40;;;;;;;40.25;23.65;;;12.80;85.20;;;;;;5050919;28;20052;-63
2021/12/22 14:02:44;;;;;;;42.30;25.77;;;12.80;85.70;;;;;;5051202;28;20047;-64
2021/12/22 14:06:07;;;;;;;53.92;28.85;;;12.80;86.20;;;;;;5051070;28;20052;-63
2021/12/22 14:09:13;;;;;;;47.22;28.52;;;12.80;85.80;;;;;;5050877;28;20059;-64
2021/12/22 14:12:23;;;;;;;47.42;27.63;;;12.80;85.50;;;;;;5050858;28;20424;-65
2021/12/22 14:15:38;;;;;;;41.95;25.40;;;12.70;85.50;;;;;;5050718;28;20040;-65
2021/12/22 14:18:42;;;;;;;41.05;25.50;;;12.70;86.10;;;;;;5049647;28;20068;-65
2021/12/22 14:21:49;;;;;;;38.67;25.10;;;12.70;85.90;;;;;;5050443;28;20036;-64
2021/12/22 14:24:55;;;;;;;37.50;23.48;;;12.70;85.90;;;;;;5049575;28;20043;-66
2021/12/22 14:28:04;;;;;;;39.08;24.58;;;12.70;83.50;;;;;;5050890;28;20051;-67
2021/12/22 14:31:10;;;;;;;38.53;22.98;;;12.70;82.80;;;;;;5049813;28;20413;-63
2021/12/22 14:34:13;;;;;;;40.05;23.38;;;12.70;83.20;;;;;;5050194;28;20056;-63
2021/12/22 14:37:28;;;;;;;38.70;24.00;;;12.70;83.00;;;;;;5050198;28;20044;-65
2021/12/22 14:40:35;;;;;;;35.78;24.58;;;12.70;83.20;;;;;;5050718;28;20052;-64
2021/12/22 14:43:47;;;;;;;45.70;25.80;;;12.80;83.00;;;;;;5050588;28;20051;-65
2021/12/22 14:46:52;;;;;;;41.10;23.98;;;12.70;82.40;;;;;;5050188;28;20059;-65
2021/12/22 14:49:56;;;;;;;48.42;26.30;;;12.70;82.40;;;;;;5050215;28;20044;-64
2021/12/22 14:53:04;;;;;;;40.63;25.60;;;12.70;83.00;;;;;;5050566;28;20047;-65
2021/12/22 14:56:14;;;;;;;47.90;25.55;;;12.70;82.00;;;;;;5049927;28;20107;-65
2021/12/22 14:59:21;;;;;;;54.85;25.77;;;12.70;81.90;;;;;;5053233;28;20052;-66
2021/12/22 15:02:25;;;;;;;46.35;26.65;;;12.70;82.50;;;;;;5054040;28;20147;-65
2021/12/22 15:05:31;;;;;;;53.03;27.25;;;12.60;82.80;;;;;;5053892;28;20040;-64
2021/12/22 15:08:37;;;;;;;48.80;29.05;;;12.60;83.50;;;;;;5053505;28;20055;-65
2021/12/22 15:11:41;;;;;;;48.63;28.88;;;12.50;83.60;;;;;;5053996;28;20040;-65
2021/12/22 15:14:45;;;;;;;62.55;29.75;;;12.50;84.20;;;;;;5053552;28;20048;-63
2021/12/22 15:17:49;;;;;;;70.57;35.75;;;12.50;84.80;;;;;;5053856;28;20056;-67
2021/12/22 15:20:53;;;;;;;69.00;36.25;;;12.40;84.80;;;;;;5053630;28;20056;-65
2021/12/22 15:23:57;;;;;;;61.47;34.17;;;12.40;85.10;;;;;;5053677;28;20044;-64
2021/12/22 15:27:01;;;;;;;59.55;33.00;;;12.40;85.40;;;;;;5052555;28;20503;-65
2021/12/22 15:30:06;;;;;;;57.80;32.22;;;12.30;84.90;;;;;;5053048;28;20048;-64
2021/12/22 15:33:10;;;;;;;55.90;30.15;;;12.30;85.60;;;;;;5052668;28;20524;-64
2021/12/22 15:36:14;;;;;;;61.45;29.52;;;12.30;85.00;;;;;;5052030;28;20056;-63
2021/12/22 15:39:18;;;;;;;56.00;28.20;;;12.20;84.30;;;;;;5052071;28;20051;-63
2021/12/22 15:42:23;;;;;;;52.28;30.80;;;12.20;83.80;;;;;;5053492;28;20499;-63
2021/12/22 15:45:28;;;;;;;52.08;29.67;;;12.20;83.60;;;;;;5053381;28;20048;-64
2021/12/22 15:48:32;;;;;;;64.55;32.53;;;12.10;83.30;;;;;;5053311;28;20036;-63
2021/12/22 15:51:36;;;;;;;59.10;33.65;;;12.10;83.50;;;;;;5052577;28;20056;-63
2021/12/22 15:54:40;;;;;;;63.97;34.80;;;12.10;83.30;;;;;;5053515;28;20060;-64
2021/12/22 15:57:44;;;;;;;81.18;37.33;;;12.10;83.10;;;;;;5053121;28;20488;-63
2021/12/22 16:00:48;;;;;;;73.78;38.65;;;12.10;82.60;;;;;;5052638;28;20513;-64
2021/12/22 16:03:52;;;;;;;70.30;37.45;;;12.10;82.70;;;;;;5052457;28;20515;-64